createdAt,value
2023-03-18T00:01:12.331Z,4.40
2023-03-18T00:03:40.071Z,4.30
2023-03-18T00:06:15.407Z,4.30
2023-03-18T00:08:46.138Z,4.20
2023-03-18T00:11:16.892Z,4.20
2023-03-18T00:13:44.833Z,4.20
2023-03-18T00:16:12.663Z,4.14
2023-03-18T00:18:41.761Z,4.10
2023-03-18T00:21:11.007Z,4.08
2023-03-18T00:23:39.224Z,4.00
2023-03-18T00:26:08.991Z,4.00
2023-03-18T00:28:38.110Z,4.00
2023-03-18T00:31:10.076Z,4.00
2023-03-18T00:33:40.221Z,3.98
2023-03-18T00:36:10.285Z,3.90
2023-03-18T00:38:38.125Z,3.90
2023-03-18T00:41:12.103Z,3.90
2023-03-18T00:43:54.712Z,3.90
2023-03-18T00:46:32.354Z,3.80
2023-03-18T00:49:05.123Z,3.80
2023-03-18T00:51:37.442Z,3.70
2023-03-18T00:54:09.250Z,3.70
2023-03-18T00:56:37.661Z,3.62
2023-03-18T00:59:08.260Z,3.60
2023-03-18T01:01:37.598Z,3.50
2023-03-18T01:04:06.732Z,3.50
2023-03-18T01:06:37.624Z,3.46
2023-03-18T01:09:09.927Z,3.42
2023-03-18T01:11:38.060Z,3.40
2023-03-18T01:14:05.898Z,3.40
2023-03-18T01:16:33.630Z,3.38
2023-03-18T01:19:01.629Z,3.30
2023-03-18T01:21:29.293Z,3.30
2023-03-18T01:23:56.942Z,3.30
2023-03-18T01:26:26.175Z,3.30
2023-03-18T01:28:53.922Z,3.34
2023-03-18T01:31:21.890Z,3.30
2023-03-18T01:33:50.006Z,3.32
2023-03-18T01:36:17.935Z,3.30
2023-03-18T01:38:45.653Z,3.30
2023-03-18T01:41:13.447Z,3.28
2023-03-18T01:43:43.385Z,3.22
2023-03-18T01:46:46.018Z,3.20
2023-03-18T01:49:20.715Z,3.20
2023-03-18T01:52:06.181Z,3.16
2023-03-18T01:54:43.468Z,3.10
2023-03-18T01:57:12.786Z,3.10
2023-03-18T01:59:42.848Z,3.10
2023-03-18T02:02:15.095Z,3.10
2023-03-18T02:04:50.438Z,3.00
2023-03-18T02:07:26.383Z,3.00
2023-03-18T02:09:58.141Z,3.00
2023-03-18T02:12:33.376Z,3.00
2023-03-18T02:15:06.222Z,2.92
2023-03-18T02:17:38.974Z,2.94
2023-03-18T02:20:40.604Z,3.00
2023-03-18T02:23:37.999Z,3.00
2023-03-18T02:26:34.199Z,3.00
2023-03-18T02:29:05.959Z,3.00
2023-03-18T02:31:36.855Z,3.00
2023-03-18T02:34:07.752Z,3.00
2023-03-18T02:36:36.479Z,3.00
2023-03-18T02:39:05.302Z,3.08
2023-03-18T02:41:35.941Z,3.00
2023-03-18T02:44:03.855Z,3.00
2023-03-18T02:46:40.950Z,2.98
2023-03-18T02:49:09.626Z,2.90
2023-03-18T02:51:38.283Z,2.88
2023-03-18T02:54:14.554Z,2.80
2023-03-18T02:56:43.750Z,2.80
2023-03-18T02:59:13.067Z,2.80
2023-03-18T03:01:43.095Z,2.74
2023-03-18T03:04:12.359Z,2.70
2023-03-18T03:06:41.359Z,2.70
2023-03-18T03:09:13.457Z,2.60
2023-03-18T03:11:44.246Z,2.60
2023-03-18T03:14:14.149Z,2.60
2023-03-18T03:16:42.129Z,2.60
2023-03-18T03:19:09.885Z,2.60
2023-03-18T03:21:37.627Z,2.60
2023-03-18T03:24:07.240Z,2.50
2023-03-18T03:26:35.998Z,2.50
2023-03-18T03:29:05.570Z,2.48
2023-03-18T03:31:34.583Z,2.40
2023-03-18T03:34:02.747Z,2.40
2023-03-18T03:36:30.838Z,2.40
2023-03-18T03:38:58.611Z,2.40
2023-03-18T03:41:26.342Z,2.40
2023-03-18T03:43:54.208Z,2.40
2023-03-18T03:46:21.892Z,2.30
2023-03-18T03:48:50.208Z,2.30
2023-03-18T03:51:17.851Z,2.34
2023-03-18T03:53:46.383Z,2.38
2023-03-18T03:56:14.127Z,2.30
2023-03-18T03:58:42.051Z,2.30
2023-03-18T04:01:09.669Z,2.20
2023-03-18T04:03:37.422Z,2.20
2023-03-18T04:06:06.775Z,2.20
2023-03-18T04:08:34.473Z,2.20
2023-03-18T04:11:03.467Z,2.20
2023-03-18T04:13:31.172Z,2.20
2023-03-18T04:15:59.347Z,2.20
2023-03-18T04:18:27.335Z,2.18
2023-03-18T04:20:55.081Z,2.20
2023-03-18T04:23:22.752Z,2.18
2023-03-18T04:25:50.554Z,2.10
2023-03-18T04:28:18.158Z,2.10
2023-03-18T04:30:47.629Z,2.10
2023-03-18T04:33:15.264Z,2.10
2023-03-18T04:35:43.733Z,2.04
2023-03-18T04:38:12.110Z,2.00
2023-03-18T04:40:39.740Z,1.90
2023-03-18T04:43:07.406Z,1.86
2023-03-18T04:45:35.061Z,1.80
2023-03-18T04:48:02.677Z,1.80
2023-03-18T04:50:30.890Z,1.80
2023-03-18T04:52:58.660Z,1.80
2023-03-18T04:55:26.401Z,1.80
2023-03-18T04:57:54.689Z,1.80
2023-03-18T05:00:22.763Z,1.80
2023-03-18T05:02:51.078Z,1.80
2023-03-18T05:05:18.992Z,1.80
2023-03-18T05:07:46.955Z,1.80
2023-03-18T05:10:15.080Z,1.80
2023-03-18T05:12:43.515Z,1.84
2023-03-18T05:15:12.217Z,1.90
2023-03-18T05:17:40.935Z,1.90
2023-03-18T05:20:10.629Z,1.94
2023-03-18T05:22:38.623Z,2.00
2023-03-18T05:25:08.077Z,2.00
2023-03-18T05:27:35.832Z,2.00
2023-03-18T05:30:05.930Z,2.10
2023-03-18T05:32:33.770Z,2.12
2023-03-18T05:35:01.470Z,2.20
2023-03-18T05:37:29.526Z,2.30
2023-03-18T05:39:57.448Z,2.30
2023-03-18T05:42:25.343Z,2.40
2023-03-18T05:44:54.330Z,2.40
2023-03-18T05:47:22.625Z,2.50
2023-03-18T05:49:50.231Z,2.60
2023-03-18T05:52:18.070Z,2.60
2023-03-18T05:54:45.826Z,2.66
2023-03-18T05:57:13.707Z,2.70
2023-03-18T05:59:42.906Z,2.74
2023-03-18T06:02:11.758Z,2.80
2023-03-18T06:04:40.163Z,2.82
2023-03-18T06:07:08.494Z,2.90
2023-03-18T06:09:36.875Z,2.98
2023-03-18T06:12:05.453Z,3.00
2023-03-18T06:14:33.172Z,3.10
2023-03-18T06:17:01.142Z,3.10
2023-03-18T06:19:30.755Z,3.20
2023-03-18T06:21:58.929Z,3.20
2023-03-18T06:24:27.125Z,3.30
2023-03-18T06:26:54.820Z,3.36
2023-03-18T06:29:22.537Z,3.40
2023-03-18T06:31:50.161Z,3.46
2023-03-18T06:34:17.994Z,3.50
2023-03-18T06:36:45.889Z,3.50
2023-03-18T06:39:14.045Z,3.60
2023-03-18T06:41:41.732Z,3.68
2023-03-18T06:44:09.408Z,3.70
2023-03-18T06:46:37.305Z,3.80
2023-03-18T06:49:06.493Z,3.90
2023-03-18T06:51:34.432Z,4.00
2023-03-18T06:54:02.118Z,4.10
2023-03-18T06:56:30.688Z,4.20
2023-03-18T06:58:58.383Z,4.32
2023-03-18T07:01:26.163Z,4.48
2023-03-18T07:03:53.885Z,4.60
2023-03-18T07:06:21.879Z,4.80
2023-03-18T07:08:49.548Z,4.92
2023-03-18T07:11:17.140Z,5.20
2023-03-18T07:13:45.223Z,5.60
2023-03-18T07:16:13.109Z,5.82
2023-03-18T07:18:41.088Z,5.90
2023-03-18T07:21:10.078Z,5.90
2023-03-18T07:23:39.081Z,6.00
2023-03-18T07:26:07.235Z,6.00
2023-03-18T07:28:34.907Z,6.00
2023-03-18T07:31:03.904Z,6.10
2023-03-18T07:33:32.452Z,6.10
2023-03-18T07:36:00.439Z,6.18
2023-03-18T07:38:28.137Z,6.20
2023-03-18T07:40:56.895Z,6.20
2023-03-18T07:43:24.617Z,6.30
2023-03-18T07:45:52.310Z,6.30
2023-03-18T07:48:20.294Z,6.40
2023-03-18T07:50:47.997Z,6.44
2023-03-18T07:53:16.864Z,6.50
2023-03-18T07:55:44.700Z,6.60
2023-03-18T07:58:12.341Z,6.62
2023-03-18T08:00:40.050Z,6.70
2023-03-18T08:03:08.104Z,6.80
2023-03-18T08:05:36.041Z,6.90
2023-03-18T08:08:04.358Z,6.94
2023-03-18T08:10:32.024Z,7.00
2023-03-18T08:12:59.720Z,7.02
2023-03-18T08:15:27.724Z,7.10
2023-03-18T08:17:56.039Z,7.18
2023-03-18T08:20:23.655Z,7.20
2023-03-18T08:22:51.362Z,7.20
2023-03-18T08:25:19.413Z,7.30
2023-03-18T08:27:47.117Z,7.30
2023-03-18T08:30:15.047Z,7.34
2023-03-18T08:32:43.513Z,7.40
2023-03-18T08:35:12.717Z,7.40
2023-03-18T08:37:40.514Z,7.50
2023-03-18T08:40:09.853Z,7.50
2023-03-18T08:42:37.738Z,7.60
2023-03-18T08:45:06.690Z,7.66
2023-03-18T08:47:34.337Z,7.70
2023-03-18T08:50:02.081Z,7.78
2023-03-18T08:52:30.117Z,7.80
2023-03-18T08:54:58.890Z,7.90
2023-03-18T08:57:28.082Z,7.90
2023-03-18T08:59:55.851Z,7.98
2023-03-18T09:02:24.021Z,8.00
2023-03-18T09:04:55.758Z,8.10
2023-03-18T09:07:23.503Z,8.20
2023-03-18T09:09:51.800Z,8.22
2023-03-18T09:12:19.987Z,8.30
2023-03-18T09:14:47.697Z,8.34
2023-03-18T09:17:15.860Z,8.40
2023-03-18T09:19:43.596Z,8.40
2023-03-18T09:22:11.493Z,8.50
2023-03-18T09:24:39.531Z,8.50
2023-03-18T09:27:07.168Z,8.60
2023-03-18T09:29:34.790Z,8.70
2023-03-18T09:32:02.668Z,8.70
2023-03-18T09:34:30.519Z,8.80
2023-03-18T09:36:58.392Z,8.90
2023-03-18T09:39:27.207Z,8.94
2023-03-18T09:42:43.312Z,9.02
2023-03-18T09:45:26.804Z,9.20
2023-03-18T09:48:06.697Z,9.30
2023-03-18T09:50:42.578Z,9.30
2023-03-18T09:53:53.975Z,9.40
2023-03-18T09:56:29.312Z,9.40
2023-03-18T09:59:10.644Z,9.48
2023-03-18T10:01:41.269Z,9.50
2023-03-18T10:04:23.784Z,9.50
2023-03-18T10:07:06.336Z,9.54
2023-03-18T10:09:52.383Z,9.60
2023-03-18T10:12:31.853Z,9.66
2023-03-18T10:15:22.626Z,9.70
2023-03-18T10:18:03.220Z,9.70
2023-03-18T10:20:52.547Z,9.80
2023-03-18T10:23:42.226Z,9.80
2023-03-18T10:26:26.692Z,9.90
2023-03-18T10:29:08.712Z,10.00
2023-03-18T10:32:00.331Z,10.04
2023-03-18T10:35:02.355Z,10.10
2023-03-18T10:38:04.767Z,10.10
2023-03-18T10:40:39.748Z,10.10
2023-03-18T10:43:28.166Z,10.20
2023-03-18T10:46:07.431Z,10.20
2023-03-18T10:48:42.632Z,10.28
2023-03-18T10:51:22.863Z,10.30
2023-03-18T10:54:00.140Z,10.30
2023-03-18T10:56:28.743Z,10.38
2023-03-18T10:58:57.526Z,10.34
2023-03-18T11:01:29.017Z,10.30
2023-03-18T11:04:14.348Z,10.34
2023-03-18T11:07:04.978Z,10.40
2023-03-18T11:09:42.368Z,10.50
2023-03-18T11:12:30.775Z,10.50
2023-03-18T11:14:58.489Z,10.50
2023-03-18T11:17:31.684Z,10.60
2023-03-18T11:20:19.666Z,10.60
2023-03-18T11:22:55.491Z,10.70
2023-03-18T11:25:30.913Z,10.72
2023-03-18T11:28:06.473Z,10.80
2023-03-18T11:31:00.474Z,10.86
2023-03-18T11:33:37.340Z,10.90
2023-03-18T11:36:10.089Z,10.96
2023-03-18T11:38:38.205Z,11.00
2023-03-18T11:41:22.742Z,11.10
2023-03-18T11:44:19.035Z,11.10
2023-03-18T11:47:03.350Z,11.10
2023-03-18T11:49:32.014Z,11.20
2023-03-18T11:52:33.618Z,11.20
2023-03-18T11:55:13.082Z,11.30
2023-03-18T11:58:35.174Z,11.32
2023-03-18T12:01:27.922Z,11.40
2023-03-18T12:04:23.456Z,11.40
2023-03-18T12:07:20.495Z,11.42
2023-03-18T12:10:08.021Z,11.50
2023-03-18T12:13:15.936Z,11.60
2023-03-18T12:15:55.546Z,11.70
2023-03-18T12:18:42.758Z,11.74
2023-03-18T12:21:29.527Z,11.80
2023-03-18T12:24:30.422Z,11.72
2023-03-18T12:27:15.939Z,11.70
2023-03-18T12:30:11.697Z,11.60
2023-03-18T12:32:57.621Z,11.58
2023-03-18T12:36:04.079Z,11.50
2023-03-18T12:39:06.001Z,11.46
2023-03-18T12:42:10.198Z,11.40
2023-03-18T12:45:09.239Z,11.50
2023-03-18T12:47:51.773Z,11.50
2023-03-18T12:50:21.074Z,11.60
2023-03-18T12:52:56.909Z,11.60
2023-03-18T12:55:32.932Z,11.60
2023-03-18T12:58:11.084Z,11.60
2023-03-18T13:00:50.111Z,11.70
2023-03-18T13:03:40.158Z,11.70
2023-03-18T13:06:39.426Z,11.76
2023-03-18T13:09:25.409Z,11.80
2023-03-18T13:12:01.896Z,11.80
2023-03-18T13:15:02.887Z,11.82
2023-03-18T13:17:44.969Z,11.90
2023-03-18T13:20:26.865Z,12.00
2023-03-18T13:23:09.960Z,12.06
2023-03-18T13:26:29.089Z,12.10
2023-03-18T13:29:17.763Z,12.20
2023-03-18T13:32:14.345Z,12.30
2023-03-18T13:35:14.558Z,12.40
2023-03-18T13:38:19.240Z,12.40
2023-03-18T13:41:12.106Z,12.40
2023-03-18T13:43:49.264Z,12.40
2023-03-18T13:46:27.201Z,12.40
2023-03-18T13:49:02.488Z,12.40
2023-03-18T13:51:30.076Z,12.48
2023-03-18T13:54:05.842Z,12.50
2023-03-18T13:56:50.216Z,12.50
2023-03-18T13:59:33.248Z,12.50
2023-03-18T14:02:43.625Z,12.44
2023-03-18T14:05:37.358Z,12.50
2023-03-18T14:08:55.179Z,12.40
2023-03-18T14:11:23.236Z,12.40
2023-03-18T14:14:00.591Z,12.32
2023-03-18T14:16:48.091Z,12.30
2023-03-18T14:19:26.996Z,12.40
2023-03-18T14:22:07.041Z,12.38
2023-03-18T14:24:35.538Z,12.30
2023-03-18T14:27:06.755Z,12.30
2023-03-18T14:29:37.277Z,12.30
2023-03-18T14:32:35.797Z,12.22
2023-03-18T14:35:21.118Z,12.30
2023-03-18T14:38:22.348Z,12.30
2023-03-18T14:40:54.490Z,12.40
2023-03-18T14:43:50.932Z,12.40
2023-03-18T14:46:31.262Z,12.40
2023-03-18T14:48:58.988Z,12.40
2023-03-18T14:51:31.486Z,12.38
2023-03-18T14:54:20.881Z,12.34
2023-03-18T14:56:56.725Z,12.30
2023-03-18T14:59:25.790Z,12.30
2023-03-18T15:01:55.493Z,12.30
2023-03-18T15:04:26.929Z,12.30
2023-03-18T15:07:00.485Z,12.30
2023-03-18T15:09:32.544Z,12.20
2023-03-18T15:12:16.088Z,12.20
2023-03-18T15:14:43.770Z,12.20
2023-03-18T15:17:17.042Z,12.20
2023-03-18T15:19:46.423Z,12.20
2023-03-18T15:22:26.341Z,12.20
2023-03-18T15:25:02.329Z,12.20
2023-03-18T15:27:34.250Z,12.20
2023-03-18T15:30:07.284Z,12.30
2023-03-18T15:32:49.855Z,12.30
2023-03-18T15:35:26.335Z,12.30
2023-03-18T15:38:09.264Z,12.30
2023-03-18T15:40:54.980Z,12.30
2023-03-18T15:43:35.890Z,12.30
2023-03-18T15:46:22.759Z,12.30
2023-03-18T15:48:55.823Z,12.30
2023-03-18T15:51:52.299Z,12.20
2023-03-18T15:54:39.076Z,12.20
2023-03-18T15:57:32.093Z,12.20
2023-03-18T16:00:00.149Z,12.10
2023-03-18T16:02:30.020Z,12.10
2023-03-18T16:05:29.030Z,12.10
2023-03-18T16:07:56.977Z,12.00
2023-03-18T16:10:26.441Z,12.00
2023-03-18T16:13:01.357Z,12.00
2023-03-18T16:15:29.808Z,12.00
2023-03-18T16:17:57.795Z,11.90
2023-03-18T16:20:29.576Z,11.90
2023-03-18T16:22:57.968Z,11.90
2023-03-18T16:25:26.615Z,11.80
2023-03-18T16:27:58.766Z,11.80
2023-03-18T16:30:31.911Z,11.70
2023-03-18T16:33:00.130Z,11.70
2023-03-18T16:35:34.511Z,11.60
2023-03-18T16:38:02.359Z,11.60
2023-03-18T16:40:31.911Z,11.58
2023-03-18T16:42:59.530Z,11.50
2023-03-18T16:45:31.081Z,11.50
2023-03-18T16:48:03.273Z,11.40
2023-03-18T16:50:37.588Z,11.38
2023-03-18T16:53:32.597Z,11.30
2023-03-18T16:56:16.024Z,11.20
2023-03-18T16:58:44.685Z,11.16
2023-03-18T17:01:19.363Z,11.10
2023-03-18T17:03:48.106Z,11.00
2023-03-18T17:06:15.871Z,10.90
2023-03-18T17:08:43.535Z,10.80
2023-03-18T17:11:21.427Z,10.80
2023-03-18T17:13:49.227Z,10.70
2023-03-18T17:16:20.041Z,10.60
2023-03-18T17:18:48.210Z,10.50
2023-03-18T17:21:16.999Z,10.40
2023-03-18T17:23:45.577Z,10.30
2023-03-18T17:26:15.801Z,10.20
2023-03-18T17:28:47.722Z,10.10
2023-03-18T17:31:16.515Z,10.00
2023-03-18T17:33:44.238Z,9.90
2023-03-18T17:36:12.336Z,9.90
2023-03-18T17:38:40.065Z,9.80
2023-03-18T17:41:21.333Z,9.70
2023-03-18T17:43:49.152Z,9.70
2023-03-18T17:46:16.938Z,9.60
2023-03-18T17:48:45.375Z,9.60
2023-03-18T17:51:17.511Z,9.50
2023-03-18T17:53:53.792Z,9.50
2023-03-18T17:56:21.443Z,9.50
2023-03-18T17:58:51.555Z,9.40
2023-03-18T18:01:27.264Z,9.40
2023-03-18T18:03:57.821Z,9.40
2023-03-18T18:06:29.318Z,9.30
2023-03-18T18:09:00.540Z,9.30
2023-03-18T18:11:31.763Z,9.30
2023-03-18T18:14:25.007Z,9.30
2023-03-18T18:16:56.016Z,9.20
2023-03-18T18:19:24.514Z,9.20
2023-03-18T18:21:53.063Z,9.20
2023-03-18T18:24:28.839Z,9.18
2023-03-18T18:26:57.067Z,9.10
2023-03-18T18:29:29.482Z,9.10
2023-03-18T18:31:57.372Z,9.10
2023-03-18T18:34:25.202Z,9.10
2023-03-18T18:36:53.031Z,9.00
2023-03-18T18:39:21.004Z,9.00
2023-03-18T18:41:48.865Z,8.90
2023-03-18T18:44:16.672Z,8.90
2023-03-18T18:46:44.676Z,8.88
2023-03-18T18:49:24.368Z,8.80
2023-03-18T18:51:54.746Z,8.72
2023-03-18T18:54:24.215Z,8.70
2023-03-18T18:56:52.547Z,8.64
2023-03-18T18:59:34.979Z,8.60
2023-03-18T19:02:03.478Z,8.50
2023-03-18T19:04:31.167Z,8.50
2023-03-18T19:07:04.669Z,8.40
2023-03-18T19:09:32.339Z,8.40
2023-03-18T19:11:59.996Z,8.30
2023-03-18T19:14:29.513Z,8.30
2023-03-18T19:16:58.919Z,8.22
2023-03-18T19:19:30.917Z,8.20
2023-03-18T19:21:58.866Z,8.10
2023-03-18T19:24:35.921Z,8.10
2023-03-18T19:27:14.860Z,8.00
2023-03-18T19:29:42.703Z,8.00
2023-03-18T19:32:20.104Z,8.00
2023-03-18T19:34:49.223Z,8.00
2023-03-18T19:37:22.432Z,8.00
2023-03-18T19:39:50.594Z,8.00
2023-03-18T19:42:19.124Z,7.90
2023-03-18T19:44:47.660Z,7.90
2023-03-18T19:47:20.359Z,7.90
2023-03-18T19:49:48.672Z,7.90
2023-03-18T19:52:27.118Z,7.80
2023-03-18T19:54:56.768Z,7.80
2023-03-18T19:57:31.779Z,7.80
2023-03-18T20:00:04.857Z,7.80
2023-03-18T20:02:34.824Z,7.80
2023-03-18T20:05:16.561Z,7.80
2023-03-18T20:07:44.432Z,7.80
2023-03-18T20:10:14.084Z,7.70
2023-03-18T20:12:46.732Z,7.72
2023-03-18T20:15:25.190Z,7.70
2023-03-18T20:17:53.359Z,7.70
2023-03-18T20:20:42.462Z,7.70
2023-03-18T20:23:26.164Z,7.70
2023-03-18T20:25:54.168Z,7.70
2023-03-18T20:28:25.193Z,7.70
2023-03-18T20:30:55.365Z,7.70
2023-03-18T20:33:23.341Z,7.70
2023-03-18T20:35:53.923Z,7.70
2023-03-18T20:38:36.449Z,7.70
2023-03-18T20:41:06.662Z,7.70
2023-03-18T20:43:34.583Z,7.68
2023-03-18T20:46:02.382Z,7.66
2023-03-18T20:48:30.385Z,7.68
2023-03-18T20:50:58.235Z,7.70
2023-03-18T20:53:31.673Z,7.68
2023-03-18T20:55:59.462Z,7.60
2023-03-18T20:58:28.121Z,7.60
2023-03-18T21:00:56.089Z,7.60
2023-03-18T21:03:32.717Z,7.60
2023-03-18T21:06:03.890Z,7.60
2023-03-18T21:08:33.058Z,7.60
2023-03-18T21:11:02.298Z,7.50
2023-03-18T21:13:37.884Z,7.50
2023-03-18T21:16:12.958Z,7.48
2023-03-18T21:18:42.155Z,7.40
2023-03-18T21:21:19.404Z,7.40
2023-03-18T21:23:47.697Z,7.40
2023-03-18T21:26:15.426Z,7.30
2023-03-18T21:28:43.241Z,7.20
2023-03-18T21:31:33.099Z,7.20
2023-03-18T21:34:01.159Z,7.20
2023-03-18T21:36:28.825Z,7.18
2023-03-18T21:38:56.412Z,7.10
2023-03-18T21:41:28.860Z,7.10
2023-03-18T21:43:57.134Z,7.10
2023-03-18T21:46:27.221Z,7.10
2023-03-18T21:48:55.994Z,7.10
2023-03-18T21:51:39.094Z,7.10
2023-03-18T21:54:19.079Z,7.10
2023-03-18T21:56:46.805Z,7.10
2023-03-18T21:59:14.478Z,7.10
2023-03-18T22:01:42.200Z,7.10
2023-03-18T22:04:10.674Z,7.10
2023-03-18T22:06:38.340Z,7.10
2023-03-18T22:09:06.013Z,7.10
2023-03-18T22:11:33.705Z,7.10
2023-03-18T22:14:01.407Z,7.10
2023-03-18T22:16:29.102Z,7.10
2023-03-18T22:18:56.810Z,7.08
2023-03-18T22:21:28.362Z,7.02
2023-03-18T22:23:58.110Z,7.00
2023-03-18T22:26:25.948Z,7.00
2023-03-18T22:28:53.560Z,7.00
2023-03-18T22:31:25.623Z,7.00
2023-03-18T22:33:54.758Z,7.00
2023-03-18T22:36:23.811Z,6.90
2023-03-18T22:38:51.553Z,6.90
2023-03-18T22:41:23.100Z,6.90
2023-03-18T22:43:51.288Z,6.90
2023-03-18T22:46:19.053Z,6.82
2023-03-18T22:48:46.757Z,6.82
2023-03-18T22:51:28.493Z,6.80
2023-03-18T22:53:56.795Z,6.80
2023-03-18T22:56:24.480Z,6.80
2023-03-18T22:58:52.387Z,6.70
2023-03-18T23:01:27.695Z,6.70
2023-03-18T23:03:55.797Z,6.62
2023-03-18T23:06:27.289Z,6.60
2023-03-18T23:08:55.256Z,6.60
2023-03-18T23:11:22.906Z,6.60
2023-03-18T23:13:52.074Z,6.58
2023-03-18T23:16:23.654Z,6.50
2023-03-18T23:18:52.306Z,6.50
2023-03-18T23:21:24.419Z,6.50
2023-03-18T23:23:53.172Z,6.50
2023-03-18T23:26:21.731Z,6.50
2023-03-18T23:28:49.511Z,6.50
2023-03-18T23:31:17.933Z,6.50
2023-03-18T23:33:47.185Z,6.44
2023-03-18T23:36:14.971Z,6.42
2023-03-18T23:38:42.705Z,6.50
2023-03-18T23:41:10.394Z,6.50
2023-03-18T23:43:38.033Z,6.44
2023-03-18T23:46:06.261Z,6.40
2023-03-18T23:48:34.199Z,6.40
2023-03-18T23:51:02.269Z,6.40
2023-03-18T23:53:30.033Z,6.40
2023-03-18T23:55:57.651Z,6.40
2023-03-18T23:58:25.553Z,6.40
